sensor_id;sensor_type;location;lat;lon;timestamp;P1;durP1;ratioP1;P2;durP2;ratioP2
69170;SDS011;56279;47.902;12.308;2023-03-03T00:00:23;33.70;;;14.85;;
69170;SDS011;56279;47.902;12.308;2023-03-03T00:02:25;33.77;;;12.70;;
69170;SDS011;56279;47.902;12.308;2023-03-03T00:04:26;37.75;;;14.80;;
69170;SDS011;56279;47.902;12.308;2023-03-03T00:06:29;34.17;;;14.65;;
69170;SDS011;56279;47.902;12.308;2023-03-03T00:08:30;35.28;;;14.75;;
69170;SDS011;56279;47.902;12.308;2023-03-03T00:10:36;33.90;;;14.45;;
69170;SDS011;56279;47.902;12.308;2023-03-03T00:12:46;30.43;;;13.40;;
69170;SDS011;56279;47.902;12.308;2023-03-03T00:14:49;32.47;;;13.52;;
69170;SDS011;56279;47.902;12.308;2023-03-03T00:16:51;38.55;;;13.27;;
69170;SDS011;56279;47.902;12.308;2023-03-03T00:18:53;38.58;;;13.07;;
69170;SDS011;56279;47.902;12.308;2023-03-03T00:20:56;34.00;;;14.85;;
69170;SDS011;56279;47.902;12.308;2023-03-03T00:23:12;39.20;;;15.03;;
69170;SDS011;56279;47.902;12.308;2023-03-03T00:25:28;35.95;;;13.75;;
69170;SDS011;56279;47.902;12.308;2023-03-03T00:27:35;36.13;;;14.65;;
69170;SDS011;56279;47.902;12.308;2023-03-03T00:29:39;40.55;;;14.38;;
69170;SDS011;56279;47.902;12.308;2023-03-03T00:31:46;38.67;;;15.05;;
69170;SDS011;56279;47.902;12.308;2023-03-03T00:33:51;35.07;;;13.40;;
69170;SDS011;56279;47.902;12.308;2023-03-03T00:35:55;35.00;;;14.75;;
69170;SDS011;56279;47.902;12.308;2023-03-03T00:37:58;29.77;;;13.35;;
69170;SDS011;56279;47.902;12.308;2023-03-03T00:42:26;29.63;;;12.90;;
69170;SDS011;56279;47.902;12.308;2023-03-03T00:44:33;34.93;;;12.97;;
69170;SDS011;56279;47.902;12.308;2023-03-03T00:46:39;29.80;;;12.15;;
69170;SDS011;56279;47.902;12.308;2023-03-03T00:48:42;33.67;;;12.95;;
69170;SDS011;56279;47.902;12.308;2023-03-03T00:50:46;31.23;;;13.50;;
69170;SDS011;56279;47.902;12.308;2023-03-03T00:55:12;29.57;;;12.37;;
69170;SDS011;56279;47.902;12.308;2023-03-03T00:57:13;26.40;;;12.38;;
69170;SDS011;56279;47.902;12.308;2023-03-03T00:59:16;30.52;;;13.02;;
69170;SDS011;56279;47.902;12.308;2023-03-03T01:01:18;35.28;;;12.95;;
69170;SDS011;56279;47.902;12.308;2023-03-03T01:03:25;31.05;;;13.38;;
69170;SDS011;56279;47.902;12.308;2023-03-03T01:05:29;35.27;;;13.93;;
69170;SDS011;56279;47.902;12.308;2023-03-03T01:07:32;32.15;;;13.13;;
69170;SDS011;56279;47.902;12.308;2023-03-03T01:09:33;29.58;;;12.38;;
69170;SDS011;56279;47.902;12.308;2023-03-03T01:11:36;30.88;;;13.48;;
69170;SDS011;56279;47.902;12.308;2023-03-03T01:13:39;27.77;;;13.30;;
69170;SDS011;56279;47.902;12.308;2023-03-03T01:15:45;31.07;;;12.60;;
69170;SDS011;56279;47.902;12.308;2023-03-03T01:17:47;30.35;;;12.32;;
69170;SDS011;56279;47.902;12.308;2023-03-03T01:19:50;32.60;;;13.10;;
69170;SDS011;56279;47.902;12.308;2023-03-03T01:21:52;30.75;;;13.00;;
69170;SDS011;56279;47.902;12.308;2023-03-03T01:23:55;30.00;;;13.10;;
69170;SDS011;56279;47.902;12.308;2023-03-03T01:25:56;30.20;;;12.57;;
69170;SDS011;56279;47.902;12.308;2023-03-03T01:27:59;31.45;;;13.18;;
69170;SDS011;56279;47.902;12.308;2023-03-03T01:30:01;34.40;;;13.90;;
69170;SDS011;56279;47.902;12.308;2023-03-03T01:32:04;32.97;;;11.55;;
69170;SDS011;56279;47.902;12.308;2023-03-03T01:34:07;30.98;;;12.90;;
69170;SDS011;56279;47.902;12.308;2023-03-03T01:36:08;28.57;;;12.40;;
69170;SDS011;56279;47.902;12.308;2023-03-03T01:38:10;30.35;;;12.88;;
69170;SDS011;56279;47.902;12.308;2023-03-03T01:40:13;34.72;;;14.10;;
69170;SDS011;56279;47.902;12.308;2023-03-03T01:42:20;36.15;;;13.77;;
69170;SDS011;56279;47.902;12.308;2023-03-03T01:44:22;28.95;;;12.55;;
69170;SDS011;56279;47.902;12.308;2023-03-03T01:48:35;30.33;;;13.45;;
69170;SDS011;56279;47.902;12.308;2023-03-03T01:50:50;29.58;;;12.80;;
69170;SDS011;56279;47.902;12.308;2023-03-03T01:52:55;27.17;;;12.07;;
69170;SDS011;56279;47.902;12.308;2023-03-03T01:55:00;31.05;;;13.75;;
69170;SDS011;56279;47.902;12.308;2023-03-03T01:57:15;33.37;;;12.93;;
69170;SDS011;56279;47.902;12.308;2023-03-03T01:59:28;25.98;;;11.48;;
69170;SDS011;56279;47.902;12.308;2023-03-03T02:01:41;33.85;;;13.75;;
69170;SDS011;56279;47.902;12.308;2023-03-03T02:03:43;31.10;;;13.15;;
69170;SDS011;56279;47.902;12.308;2023-03-03T02:05:53;27.30;;;13.20;;
69170;SDS011;56279;47.902;12.308;2023-03-03T02:07:58;32.50;;;12.20;;
69170;SDS011;56279;47.902;12.308;2023-03-03T02:10:05;33.50;;;13.52;;
69170;SDS011;56279;47.902;12.308;2023-03-03T02:12:12;28.98;;;11.57;;
69170;SDS011;56279;47.902;12.308;2023-03-03T02:14:16;29.63;;;13.13;;
69170;SDS011;56279;47.902;12.308;2023-03-03T02:16:18;36.10;;;13.60;;
69170;SDS011;56279;47.902;12.308;2023-03-03T02:18:20;27.17;;;12.53;;
69170;SDS011;56279;47.902;12.308;2023-03-03T02:22:57;36.10;;;13.48;;
69170;SDS011;56279;47.902;12.308;2023-03-03T02:25:06;27.33;;;11.93;;
69170;SDS011;56279;47.902;12.308;2023-03-03T02:27:12;27.88;;;12.50;;
69170;SDS011;56279;47.902;12.308;2023-03-03T02:29:15;29.90;;;12.53;;
69170;SDS011;56279;47.902;12.308;2023-03-03T02:31:18;31.30;;;13.30;;
69170;SDS011;56279;47.902;12.308;2023-03-03T02:33:22;29.63;;;13.25;;
69170;SDS011;56279;47.902;12.308;2023-03-03T02:37:28;32.78;;;13.55;;
69170;SDS011;56279;47.902;12.308;2023-03-03T02:39:32;34.90;;;13.20;;
69170;SDS011;56279;47.902;12.308;2023-03-03T02:45:58;29.58;;;13.65;;
69170;SDS011;56279;47.902;12.308;2023-03-03T02:48:00;29.92;;;12.80;;
69170;SDS011;56279;47.902;12.308;2023-03-03T02:50:02;34.37;;;13.00;;
69170;SDS011;56279;47.902;12.308;2023-03-03T02:52:05;34.38;;;14.55;;
69170;SDS011;56279;47.902;12.308;2023-03-03T02:54:15;33.65;;;13.20;;
69170;SDS011;56279;47.902;12.308;2023-03-03T02:56:19;36.55;;;15.27;;
69170;SDS011;56279;47.902;12.308;2023-03-03T02:58:21;31.65;;;12.98;;
69170;SDS011;56279;47.902;12.308;2023-03-03T03:00:22;31.23;;;13.10;;
69170;SDS011;56279;47.902;12.308;2023-03-03T03:02:24;34.20;;;12.93;;
69170;SDS011;56279;47.902;12.308;2023-03-03T03:04:27;32.58;;;14.38;;
69170;SDS011;56279;47.902;12.308;2023-03-03T03:06:29;32.38;;;13.45;;
69170;SDS011;56279;47.902;12.308;2023-03-03T03:08:30;33.80;;;13.98;;
69170;SDS011;56279;47.902;12.308;2023-03-03T03:10:32;29.90;;;13.07;;
69170;SDS011;56279;47.902;12.308;2023-03-03T03:12:33;34.53;;;14.38;;
69170;SDS011;56279;47.902;12.308;2023-03-03T03:14:35;35.35;;;14.73;;
69170;SDS011;56279;47.902;12.308;2023-03-03T03:16:40;28.75;;;12.93;;
69170;SDS011;56279;47.902;12.308;2023-03-03T03:18:42;30.85;;;14.65;;
69170;SDS011;56279;47.902;12.308;2023-03-03T03:20:44;36.20;;;15.47;;
69170;SDS011;56279;47.902;12.308;2023-03-03T03:22:45;32.35;;;13.57;;
69170;SDS011;56279;47.902;12.308;2023-03-03T03:24:50;35.22;;;15.13;;
69170;SDS011;56279;47.902;12.308;2023-03-03T03:26:52;34.90;;;14.63;;
69170;SDS011;56279;47.902;12.308;2023-03-03T03:28:56;29.13;;;13.73;;
69170;SDS011;56279;47.902;12.308;2023-03-03T03:30:59;33.60;;;14.37;;
69170;SDS011;56279;47.902;12.308;2023-03-03T03:33:02;31.60;;;13.73;;
69170;SDS011;56279;47.902;12.308;2023-03-03T03:35:03;33.42;;;14.27;;
69170;SDS011;56279;47.902;12.308;2023-03-03T03:37:06;35.58;;;15.20;;
69170;SDS011;56279;47.902;12.308;2023-03-03T03:39:10;31.80;;;13.20;;
69170;SDS011;56279;47.902;12.308;2023-03-03T03:41:16;32.57;;;14.27;;
69170;SDS011;56279;47.902;12.308;2023-03-03T03:43:17;29.30;;;12.80;;
69170;SDS011;56279;47.902;12.308;2023-03-03T03:45:20;33.15;;;14.00;;
69170;SDS011;56279;47.902;12.308;2023-03-03T03:47:22;32.22;;;13.95;;
69170;SDS011;56279;47.902;12.308;2023-03-03T03:49:25;27.70;;;13.95;;
69170;SDS011;56279;47.902;12.308;2023-03-03T03:51:29;33.87;;;14.47;;
69170;SDS011;56279;47.902;12.308;2023-03-03T03:53:32;33.17;;;13.30;;
69170;SDS011;56279;47.902;12.308;2023-03-03T03:55:35;31.55;;;13.70;;
69170;SDS011;56279;47.902;12.308;2023-03-03T03:57:40;30.90;;;14.07;;
69170;SDS011;56279;47.902;12.308;2023-03-03T03:59:43;30.63;;;12.95;;
69170;SDS011;56279;47.902;12.308;2023-03-03T04:01:44;32.33;;;14.30;;
69170;SDS011;56279;47.902;12.308;2023-03-03T04:03:46;31.52;;;13.50;;
69170;SDS011;56279;47.902;12.308;2023-03-03T04:05:53;29.55;;;13.45;;
69170;SDS011;56279;47.902;12.308;2023-03-03T04:07:55;29.75;;;13.50;;
69170;SDS011;56279;47.902;12.308;2023-03-03T04:09:56;32.00;;;14.32;;
69170;SDS011;56279;47.902;12.308;2023-03-03T04:11:59;29.97;;;13.63;;
69170;SDS011;56279;47.902;12.308;2023-03-03T04:14:01;29.05;;;12.23;;
69170;SDS011;56279;47.902;12.308;2023-03-03T04:16:03;33.20;;;14.43;;
69170;SDS011;56279;47.902;12.308;2023-03-03T04:18:05;32.45;;;13.85;;
69170;SDS011;56279;47.902;12.308;2023-03-03T04:20:08;32.53;;;12.95;;
69170;SDS011;56279;47.902;12.308;2023-03-03T04:22:12;30.03;;;13.50;;
69170;SDS011;56279;47.902;12.308;2023-03-03T04:24:16;33.67;;;13.85;;
69170;SDS011;56279;47.902;12.308;2023-03-03T04:26:22;31.58;;;13.35;;
69170;SDS011;56279;47.902;12.308;2023-03-03T04:28:26;28.10;;;12.45;;
69170;SDS011;56279;47.902;12.308;2023-03-03T04:30:28;27.65;;;12.80;;
69170;SDS011;56279;47.902;12.308;2023-03-03T04:32:32;28.93;;;12.53;;
69170;SDS011;56279;47.902;12.308;2023-03-03T04:34:38;30.52;;;13.35;;
69170;SDS011;56279;47.902;12.308;2023-03-03T04:36:40;33.03;;;14.65;;
69170;SDS011;56279;47.902;12.308;2023-03-03T04:38:41;37.42;;;15.00;;
69170;SDS011;56279;47.902;12.308;2023-03-03T04:40:44;32.33;;;13.88;;
69170;SDS011;56279;47.902;12.308;2023-03-03T04:42:47;33.83;;;13.97;;
69170;SDS011;56279;47.902;12.308;2023-03-03T04:44:49;35.55;;;14.68;;
69170;SDS011;56279;47.902;12.308;2023-03-03T04:46:51;33.20;;;15.15;;
69170;SDS011;56279;47.902;12.308;2023-03-03T04:48:53;34.25;;;14.88;;
69170;SDS011;56279;47.902;12.308;2023-03-03T04:50:55;29.48;;;12.65;;
69170;SDS011;56279;47.902;12.308;2023-03-03T04:52:58;35.80;;;14.53;;
69170;SDS011;56279;47.902;12.308;2023-03-03T04:54:59;35.72;;;14.18;;
69170;SDS011;56279;47.902;12.308;2023-03-03T04:57:01;34.55;;;14.98;;
69170;SDS011;56279;47.902;12.308;2023-03-03T04:59:03;32.22;;;13.98;;
69170;SDS011;56279;47.902;12.308;2023-03-03T05:01:05;36.65;;;14.75;;
69170;SDS011;56279;47.902;12.308;2023-03-03T05:03:09;36.57;;;14.00;;
69170;SDS011;56279;47.902;12.308;2023-03-03T05:05:17;35.72;;;14.25;;
69170;SDS011;56279;47.902;12.308;2023-03-03T05:07:18;34.70;;;15.32;;
69170;SDS011;56279;47.902;12.308;2023-03-03T05:09:20;35.88;;;14.48;;
69170;SDS011;56279;47.902;12.308;2023-03-03T05:11:21;37.17;;;14.82;;
69170;SDS011;56279;47.902;12.308;2023-03-03T05:13:23;31.60;;;14.27;;
69170;SDS011;56279;47.902;12.308;2023-03-03T05:15:25;36.22;;;14.23;;
69170;SDS011;56279;47.902;12.308;2023-03-03T05:17:26;31.30;;;14.52;;
69170;SDS011;56279;47.902;12.308;2023-03-03T05:19:30;36.38;;;14.40;;
69170;SDS011;56279;47.902;12.308;2023-03-03T05:21:34;32.60;;;13.02;;
69170;SDS011;56279;47.902;12.308;2023-03-03T05:23:37;34.10;;;13.60;;
69170;SDS011;56279;47.902;12.308;2023-03-03T05:25:39;35.08;;;13.50;;
69170;SDS011;56279;47.902;12.308;2023-03-03T05:27:43;32.22;;;14.05;;
69170;SDS011;56279;47.902;12.308;2023-03-03T05:29:48;32.97;;;13.88;;
69170;SDS011;56279;47.902;12.308;2023-03-03T05:31:52;28.77;;;12.93;;
69170;SDS011;56279;47.902;12.308;2023-03-03T05:33:54;31.50;;;13.33;;
69170;SDS011;56279;47.902;12.308;2023-03-03T05:35:56;36.03;;;12.85;;
69170;SDS011;56279;47.902;12.308;2023-03-03T05:37:58;31.98;;;13.18;;
69170;SDS011;56279;47.902;12.308;2023-03-03T05:39:59;28.25;;;12.85;;
69170;SDS011;56279;47.902;12.308;2023-03-03T05:42:01;30.38;;;12.38;;
69170;SDS011;56279;47.902;12.308;2023-03-03T05:44:04;31.50;;;13.90;;
69170;SDS011;56279;47.902;12.308;2023-03-03T05:46:06;32.65;;;14.55;;
69170;SDS011;56279;47.902;12.308;2023-03-03T05:48:07;29.30;;;12.85;;
69170;SDS011;56279;47.902;12.308;2023-03-03T05:50:10;31.17;;;13.05;;
69170;SDS011;56279;47.902;12.308;2023-03-03T05:52:12;29.70;;;14.50;;
69170;SDS011;56279;47.902;12.308;2023-03-03T05:54:14;32.30;;;14.33;;
69170;SDS011;56279;47.902;12.308;2023-03-03T05:56:15;34.85;;;15.02;;
69170;SDS011;56279;47.902;12.308;2023-03-03T05:58:16;37.83;;;15.75;;
69170;SDS011;56279;47.902;12.308;2023-03-03T06:00:19;35.72;;;14.13;;
69170;SDS011;56279;47.902;12.308;2023-03-03T06:02:22;34.75;;;14.07;;
69170;SDS011;56279;47.902;12.308;2023-03-03T06:04:24;40.17;;;14.90;;
69170;SDS011;56279;47.902;12.308;2023-03-03T06:06:29;35.90;;;14.15;;
69170;SDS011;56279;47.902;12.308;2023-03-03T06:08:39;31.17;;;13.18;;
69170;SDS011;56279;47.902;12.308;2023-03-03T06:10:40;31.98;;;12.43;;
69170;SDS011;56279;47.902;12.308;2023-03-03T06:12:44;35.97;;;13.85;;
69170;SDS011;56279;47.902;12.308;2023-03-03T06:14:45;34.63;;;13.97;;
69170;SDS011;56279;47.902;12.308;2023-03-03T06:16:47;33.90;;;13.00;;
69170;SDS011;56279;47.902;12.308;2023-03-03T06:18:48;29.23;;;13.55;;
69170;SDS011;56279;47.902;12.308;2023-03-03T06:20:50;30.50;;;13.25;;
69170;SDS011;56279;47.902;12.308;2023-03-03T06:22:52;35.33;;;14.88;;
69170;SDS011;56279;47.902;12.308;2023-03-03T06:24:54;33.23;;;13.80;;
69170;SDS011;56279;47.902;12.308;2023-03-03T06:26:57;31.48;;;14.50;;
69170;SDS011;56279;47.902;12.308;2023-03-03T06:28:59;35.25;;;14.20;;
69170;SDS011;56279;47.902;12.308;2023-03-03T06:31:02;31.15;;;12.80;;
69170;SDS011;56279;47.902;12.308;2023-03-03T06:33:05;35.08;;;13.70;;
69170;SDS011;56279;47.902;12.308;2023-03-03T06:35:06;35.77;;;14.57;;
69170;SDS011;56279;47.902;12.308;2023-03-03T06:37:09;33.75;;;15.00;;
69170;SDS011;56279;47.902;12.308;2023-03-03T06:39:10;35.35;;;13.88;;
69170;SDS011;56279;47.902;12.308;2023-03-03T06:41:12;33.78;;;13.60;;
69170;SDS011;56279;47.902;12.308;2023-03-03T06:43:13;34.83;;;13.18;;
69170;SDS011;56279;47.902;12.308;2023-03-03T06:45:16;30.50;;;12.97;;
69170;SDS011;56279;47.902;12.308;2023-03-03T06:47:18;32.97;;;13.88;;
69170;SDS011;56279;47.902;12.308;2023-03-03T06:49:19;34.63;;;14.52;;
69170;SDS011;56279;47.902;12.308;2023-03-03T06:51:22;35.40;;;14.30;;
69170;SDS011;56279;47.902;12.308;2023-03-03T06:53:29;32.63;;;14.13;;
69170;SDS011;56279;47.902;12.308;2023-03-03T06:55:32;32.33;;;13.47;;
69170;SDS011;56279;47.902;12.308;2023-03-03T06:57:34;35.38;;;13.93;;
69170;SDS011;56279;47.902;12.308;2023-03-03T06:59:35;32.47;;;14.45;;
69170;SDS011;56279;47.902;12.308;2023-03-03T07:01:37;29.80;;;13.30;;
69170;SDS011;56279;47.902;12.308;2023-03-03T07:03:38;33.78;;;13.50;;
69170;SDS011;56279;47.902;12.308;2023-03-03T07:05:41;33.87;;;12.80;;
69170;SDS011;56279;47.902;12.308;2023-03-03T07:07:43;34.80;;;14.18;;
69170;SDS011;56279;47.902;12.308;2023-03-03T07:09:47;35.00;;;14.38;;
69170;SDS011;56279;47.902;12.308;2023-03-03T07:11:51;32.28;;;13.95;;
69170;SDS011;56279;47.902;12.308;2023-03-03T07:14:08;36.10;;;14.30;;
69170;SDS011;56279;47.902;12.308;2023-03-03T07:16:17;31.13;;;13.53;;
69170;SDS011;56279;47.902;12.308;2023-03-03T07:18:28;32.17;;;14.32;;
69170;SDS011;56279;47.902;12.308;2023-03-03T07:20:35;34.20;;;14.43;;
69170;SDS011;56279;47.902;12.308;2023-03-03T07:22:40;34.80;;;13.52;;
69170;SDS011;56279;47.902;12.308;2023-03-03T07:24:42;33.03;;;13.32;;
69170;SDS011;56279;47.902;12.308;2023-03-03T07:26:46;38.03;;;14.87;;
69170;SDS011;56279;47.902;12.308;2023-03-03T07:28:54;31.67;;;13.88;;
69170;SDS011;56279;47.902;12.308;2023-03-03T07:30:59;39.30;;;15.02;;
69170;SDS011;56279;47.902;12.308;2023-03-03T07:33:18;34.53;;;13.80;;
69170;SDS011;56279;47.902;12.308;2023-03-03T07:35:32;36.30;;;13.52;;
69170;SDS011;56279;47.902;12.308;2023-03-03T07:37:38;34.10;;;14.13;;
69170;SDS011;56279;47.902;12.308;2023-03-03T07:39:42;33.50;;;14.23;;
69170;SDS011;56279;47.902;12.308;2023-03-03T07:41:45;34.35;;;14.70;;
69170;SDS011;56279;47.902;12.308;2023-03-03T07:45:50;35.85;;;14.77;;
69170;SDS011;56279;47.902;12.308;2023-03-03T07:47:53;29.00;;;13.53;;
69170;SDS011;56279;47.902;12.308;2023-03-03T07:50:14;34.50;;;13.63;;
69170;SDS011;56279;47.902;12.308;2023-03-03T07:56:34;36.53;;;13.50;;
69170;SDS011;56279;47.902;12.308;2023-03-03T07:58:36;38.20;;;14.50;;
69170;SDS011;56279;47.902;12.308;2023-03-03T08:02:59;29.05;;;13.32;;
69170;SDS011;56279;47.902;12.308;2023-03-03T08:07:36;35.60;;;15.13;;
69170;SDS011;56279;47.902;12.308;2023-03-03T08:09:42;36.90;;;15.43;;
69170;SDS011;56279;47.902;12.308;2023-03-03T08:11:56;38.10;;;14.88;;
69170;SDS011;56279;47.902;12.308;2023-03-03T08:13:59;39.28;;;15.43;;
69170;SDS011;56279;47.902;12.308;2023-03-03T08:16:03;33.97;;;14.20;;
69170;SDS011;56279;47.902;12.308;2023-03-03T08:18:27;39.30;;;14.32;;
69170;SDS011;56279;47.902;12.308;2023-03-03T08:22:45;39.05;;;15.48;;
69170;SDS011;56279;47.902;12.308;2023-03-03T08:24:46;39.50;;;15.00;;
69170;SDS011;56279;47.902;12.308;2023-03-03T08:26:49;36.13;;;15.65;;
69170;SDS011;56279;47.902;12.308;2023-03-03T08:28:50;33.72;;;14.90;;
69170;SDS011;56279;47.902;12.308;2023-03-03T08:30:53;40.97;;;16.87;;
69170;SDS011;56279;47.902;12.308;2023-03-03T08:32:54;37.20;;;15.32;;
69170;SDS011;56279;47.902;12.308;2023-03-03T08:34:56;36.83;;;15.05;;
69170;SDS011;56279;47.902;12.308;2023-03-03T08:36:57;38.15;;;16.23;;
69170;SDS011;56279;47.902;12.308;2023-03-03T08:38:59;32.20;;;14.35;;
69170;SDS011;56279;47.902;12.308;2023-03-03T08:41:00;36.83;;;14.73;;
69170;SDS011;56279;47.902;12.308;2023-03-03T08:43:03;36.70;;;14.18;;
69170;SDS011;56279;47.902;12.308;2023-03-03T08:45:05;37.25;;;16.33;;
69170;SDS011;56279;47.902;12.308;2023-03-03T08:47:08;38.35;;;14.82;;
69170;SDS011;56279;47.902;12.308;2023-03-03T08:49:10;41.20;;;16.13;;
69170;SDS011;56279;47.902;12.308;2023-03-03T08:51:11;37.20;;;15.80;;
69170;SDS011;56279;47.902;12.308;2023-03-03T08:53:13;40.60;;;14.90;;
69170;SDS011;56279;47.902;12.308;2023-03-03T08:55:15;42.13;;;16.08;;
69170;SDS011;56279;47.902;12.308;2023-03-03T08:57:16;40.00;;;15.13;;
69170;SDS011;56279;47.902;12.308;2023-03-03T08:59:18;35.15;;;14.57;;
69170;SDS011;56279;47.902;12.308;2023-03-03T09:01:20;35.97;;;15.97;;
69170;SDS011;56279;47.902;12.308;2023-03-03T09:03:22;41.70;;;15.63;;
69170;SDS011;56279;47.902;12.308;2023-03-03T09:05:24;34.67;;;14.52;;
69170;SDS011;56279;47.902;12.308;2023-03-03T09:07:26;38.13;;;15.73;;
69170;SDS011;56279;47.902;12.308;2023-03-03T09:09:28;37.53;;;15.55;;
69170;SDS011;56279;47.902;12.308;2023-03-03T09:11:29;36.23;;;14.90;;
69170;SDS011;56279;47.902;12.308;2023-03-03T09:13:32;38.78;;;16.15;;
69170;SDS011;56279;47.902;12.308;2023-03-03T09:15:41;35.65;;;15.10;;
69170;SDS011;56279;47.902;12.308;2023-03-03T09:17:43;39.03;;;15.25;;
69170;SDS011;56279;47.902;12.308;2023-03-03T09:19:44;36.65;;;15.45;;
69170;SDS011;56279;47.902;12.308;2023-03-03T09:21:46;35.17;;;14.67;;
69170;SDS011;56279;47.902;12.308;2023-03-03T09:23:48;33.80;;;15.38;;
69170;SDS011;56279;47.902;12.308;2023-03-03T09:25:56;41.60;;;16.85;;
69170;SDS011;56279;47.902;12.308;2023-03-03T09:28:28;33.65;;;14.38;;
69170;SDS011;56279;47.902;12.308;2023-03-03T09:30:35;37.92;;;18.20;;
69170;SDS011;56279;47.902;12.308;2023-03-03T09:32:39;38.53;;;16.70;;
69170;SDS011;56279;47.902;12.308;2023-03-03T09:34:42;38.53;;;16.02;;
69170;SDS011;56279;47.902;12.308;2023-03-03T09:36:44;41.17;;;17.27;;
69170;SDS011;56279;47.902;12.308;2023-03-03T09:38:46;40.95;;;16.90;;
69170;SDS011;56279;47.902;12.308;2023-03-03T09:43:10;38.63;;;16.13;;
69170;SDS011;56279;47.902;12.308;2023-03-03T09:45:25;34.78;;;15.85;;
69170;SDS011;56279;47.902;12.308;2023-03-03T09:49:42;41.58;;;16.65;;
69170;SDS011;56279;47.902;12.308;2023-03-03T09:54:36;39.30;;;15.67;;
69170;SDS011;56279;47.902;12.308;2023-03-03T09:57:16;37.90;;;17.10;;
69170;SDS011;56279;47.902;12.308;2023-03-03T09:59:47;39.75;;;17.23;;
69170;SDS011;56279;47.902;12.308;2023-03-03T10:02:42;41.60;;;17.15;;
69170;SDS011;56279;47.902;12.308;2023-03-03T10:07:26;41.73;;;17.27;;
69170;SDS011;56279;47.902;12.308;2023-03-03T10:14:37;40.58;;;16.80;;
69170;SDS011;56279;47.902;12.308;2023-03-03T10:23:51;50.03;;;17.15;;
69170;SDS011;56279;47.902;12.308;2023-03-03T10:25:59;35.55;;;15.32;;
69170;SDS011;56279;47.902;12.308;2023-03-03T10:35:37;42.38;;;16.58;;
69170;SDS011;56279;47.902;12.308;2023-03-03T10:47:43;40.45;;;15.40;;
69170;SDS011;56279;47.902;12.308;2023-03-03T10:54:12;41.50;;;16.17;;
69170;SDS011;56279;47.902;12.308;2023-03-03T10:56:45;40.42;;;16.60;;
69170;SDS011;56279;47.902;12.308;2023-03-03T11:05:45;42.00;;;17.90;;
69170;SDS011;56279;47.902;12.308;2023-03-03T11:07:57;44.85;;;18.55;;
69170;SDS011;56279;47.902;12.308;2023-03-03T11:12:42;79.65;;;36.97;;
69170;SDS011;56279;47.902;12.308;2023-03-03T11:15:07;45.33;;;19.85;;
69170;SDS011;56279;47.902;12.308;2023-03-03T11:24:30;38.55;;;17.58;;
69170;SDS011;56279;47.902;12.308;2023-03-03T11:30:59;44.92;;;16.80;;
69170;SDS011;56279;47.902;12.308;2023-03-03T11:35:18;40.78;;;17.58;;
69170;SDS011;56279;47.902;12.308;2023-03-03T11:39:25;43.47;;;18.57;;
69170;SDS011;56279;47.902;12.308;2023-03-03T11:41:37;39.72;;;17.90;;
69170;SDS011;56279;47.902;12.308;2023-03-03T11:43:50;46.17;;;18.05;;
69170;SDS011;56279;47.902;12.308;2023-03-03T11:45:56;40.97;;;17.48;;
69170;SDS011;56279;47.902;12.308;2023-03-03T11:48:16;38.08;;;17.88;;
69170;SDS011;56279;47.902;12.308;2023-03-03T11:50:30;38.07;;;17.60;;
69170;SDS011;56279;47.902;12.308;2023-03-03T11:52:54;41.08;;;17.17;;
69170;SDS011;56279;47.902;12.308;2023-03-03T11:55:20;37.20;;;16.58;;
69170;SDS011;56279;47.902;12.308;2023-03-03T11:57:38;40.30;;;17.33;;
69170;SDS011;56279;47.902;12.308;2023-03-03T11:59:47;43.10;;;17.38;;
69170;SDS011;56279;47.902;12.308;2023-03-03T12:01:56;42.70;;;17.33;;
69170;SDS011;56279;47.902;12.308;2023-03-03T12:04:04;40.45;;;17.25;;
69170;SDS011;56279;47.902;12.308;2023-03-03T12:06:26;38.83;;;18.25;;
69170;SDS011;56279;47.902;12.308;2023-03-03T12:11:03;40.63;;;18.02;;
69170;SDS011;56279;47.902;12.308;2023-03-03T12:13:20;39.83;;;18.07;;
69170;SDS011;56279;47.902;12.308;2023-03-03T12:15:40;36.45;;;16.90;;
69170;SDS011;56279;47.902;12.308;2023-03-03T12:24:22;39.90;;;16.97;;
69170;SDS011;56279;47.902;12.308;2023-03-03T12:27:20;40.03;;;18.05;;
69170;SDS011;56279;47.902;12.308;2023-03-03T12:29:05;32.13;;;16.27;;
69170;SDS011;56279;47.902;12.308;2023-03-03T12:40:24;41.38;;;18.83;;
69170;SDS011;56279;47.902;12.308;2023-03-03T12:42:35;37.80;;;15.93;;
69170;SDS011;56279;47.902;12.308;2023-03-03T12:44:53;41.30;;;18.30;;
69170;SDS011;56279;47.902;12.308;2023-03-03T12:47:15;44.37;;;17.90;;
69170;SDS011;56279;47.902;12.308;2023-03-03T12:49:27;38.40;;;17.13;;
69170;SDS011;56279;47.902;12.308;2023-03-03T12:54:31;44.65;;;18.30;;
69170;SDS011;56279;47.902;12.308;2023-03-03T12:56:53;41.47;;;17.42;;
69170;SDS011;56279;47.902;12.308;2023-03-03T13:06:39;42.17;;;17.15;;
69170;SDS011;56279;47.902;12.308;2023-03-03T13:13:27;38.63;;;16.88;;
69170;SDS011;56279;47.902;12.308;2023-03-03T13:15:37;47.30;;;18.35;;
69170;SDS011;56279;47.902;12.308;2023-03-03T13:22:54;42.10;;;17.53;;
69170;SDS011;56279;47.902;12.308;2023-03-03T13:25:13;45.75;;;18.85;;
69170;SDS011;56279;47.902;12.308;2023-03-03T13:27:27;46.20;;;19.65;;
69170;SDS011;56279;47.902;12.308;2023-03-03T13:31:44;39.42;;;18.00;;
69170;SDS011;56279;47.902;12.308;2023-03-03T13:33:56;37.73;;;17.23;;
69170;SDS011;56279;47.902;12.308;2023-03-03T13:36:04;39.15;;;17.88;;
69170;SDS011;56279;47.902;12.308;2023-03-03T13:38:11;43.08;;;18.25;;
69170;SDS011;56279;47.902;12.308;2023-03-03T13:40:18;42.20;;;16.48;;
69170;SDS011;56279;47.902;12.308;2023-03-03T13:42:28;43.28;;;18.48;;
69170;SDS011;56279;47.902;12.308;2023-03-03T13:44:39;39.50;;;18.30;;
69170;SDS011;56279;47.902;12.308;2023-03-03T13:46:58;41.20;;;17.95;;
69170;SDS011;56279;47.902;12.308;2023-03-03T13:58:47;41.78;;;18.05;;
69170;SDS011;56279;47.902;12.308;2023-03-03T14:01:13;40.13;;;17.75;;
69170;SDS011;56279;47.902;12.308;2023-03-03T14:05:56;39.88;;;16.80;;
69170;SDS011;56279;47.902;12.308;2023-03-03T14:08:11;35.13;;;16.53;;
69170;SDS011;56279;47.902;12.308;2023-03-03T14:10:35;37.72;;;16.20;;
69170;SDS011;56279;47.902;12.308;2023-03-03T14:12:54;42.22;;;16.75;;
69170;SDS011;56279;47.902;12.308;2023-03-03T14:17:49;40.08;;;18.13;;
69170;SDS011;56279;47.902;12.308;2023-03-03T14:22:21;44.00;;;17.58;;
69170;SDS011;56279;47.902;12.308;2023-03-03T14:24:30;38.33;;;17.50;;
69170;SDS011;56279;47.902;12.308;2023-03-03T14:26:44;37.17;;;17.23;;
69170;SDS011;56279;47.902;12.308;2023-03-03T14:28:48;42.53;;;18.15;;
69170;SDS011;56279;47.902;12.308;2023-03-03T14:30:54;39.60;;;17.47;;
69170;SDS011;56279;47.902;12.308;2023-03-03T14:32:58;40.38;;;18.15;;
69170;SDS011;56279;47.902;12.308;2023-03-03T14:35:01;46.53;;;20.40;;
69170;SDS011;56279;47.902;12.308;2023-03-03T14:37:27;38.88;;;18.23;;
69170;SDS011;56279;47.902;12.308;2023-03-03T14:39:42;41.92;;;18.95;;
69170;SDS011;56279;47.902;12.308;2023-03-03T14:41:48;38.83;;;16.37;;